createdAt,value
2019-03-29T00:01:13.662Z,26.43
2019-03-29T00:03:44.708Z,26.07
2019-03-29T00:06:15.624Z,27.87
2019-03-29T00:08:46.630Z,26.00
2019-03-29T00:11:17.562Z,27.53
2019-03-29T00:13:49.905Z,26.83
2019-03-29T00:16:21.011Z,25.83
2019-03-29T00:18:51.940Z,27.70
2019-03-29T00:21:23.075Z,27.97
2019-03-29T00:24:06.146Z,27.50
2019-03-29T00:26:26.621Z,28.83
2019-03-29T00:28:57.591Z,27.60
2019-03-29T00:31:28.510Z,28.47
2019-03-29T00:33:59.534Z,28.47
2019-03-29T00:36:30.526Z,29.33
2019-03-29T00:39:02.212Z,29.63
2019-03-29T00:41:34.785Z,29.37
2019-03-29T00:44:06.129Z,30.70
2019-03-29T00:46:37.205Z,31.87
2019-03-29T00:49:08.799Z,31.03
2019-03-29T00:51:39.701Z,32.40
2019-03-29T00:54:10.666Z,33.30
2019-03-29T00:56:41.585Z,30.87
2019-03-29T00:59:12.525Z,30.40
2019-03-29T01:01:43.443Z,33.63
2019-03-29T01:04:14.389Z,32.43
2019-03-29T01:06:45.339Z,32.47
2019-03-29T01:09:16.347Z,33.13
2019-03-29T01:11:47.266Z,31.50
2019-03-29T01:14:18.627Z,33.73
2019-03-29T01:16:49.566Z,32.67
2019-03-29T01:19:20.609Z,34.73
2019-03-29T01:21:51.562Z,34.17
2019-03-29T01:24:22.581Z,32.83
2019-03-29T01:26:53.499Z,34.13
2019-03-29T01:29:24.541Z,33.80
2019-03-29T01:31:55.454Z,34.37
2019-03-29T01:34:26.394Z,33.07
2019-03-29T01:36:57.307Z,33.90
2019-03-29T01:39:28.276Z,34.60
2019-03-29T01:41:59.195Z,32.70
2019-03-29T01:44:30.233Z,31.70
2019-03-29T01:47:01.151Z,32.43
2019-03-29T01:49:32.103Z,31.83
2019-03-29T01:52:03.026Z,32.27
2019-03-29T01:54:33.984Z,32.97
2019-03-29T01:57:04.901Z,31.03
2019-03-29T01:59:35.945Z,31.33
2019-03-29T02:02:06.862Z,31.53
2019-03-29T02:04:37.825Z,32.07
2019-03-29T02:07:08.739Z,30.97
2019-03-29T02:09:39.776Z,31.70
2019-03-29T02:12:10.693Z,31.50
2019-03-29T02:14:41.638Z,32.43
2019-03-29T02:17:12.546Z,32.37
2019-03-29T02:19:43.504Z,32.87
2019-03-29T02:22:14.460Z,32.27
2019-03-29T02:24:45.384Z,31.77
2019-03-29T02:27:16.287Z,33.27
2019-03-29T02:29:47.246Z,32.67
2019-03-29T02:32:19.233Z,32.63
2019-03-29T02:34:50.640Z,33.20
2019-03-29T02:37:21.563Z,34.47
2019-03-29T02:39:54.693Z,35.17
2019-03-29T02:42:25.064Z,35.93
2019-03-29T02:44:56.031Z,33.90
2019-03-29T02:47:26.947Z,34.47
2019-03-29T02:49:57.994Z,34.63
2019-03-29T02:52:28.978Z,34.60
2019-03-29T02:54:59.941Z,35.13
2019-03-29T02:57:30.865Z,36.87
2019-03-29T03:00:02.302Z,35.20
2019-03-29T03:02:33.662Z,36.03
2019-03-29T03:05:05.620Z,36.77
2019-03-29T03:07:36.535Z,35.00
2019-03-29T03:10:09.571Z,35.87
2019-03-29T03:12:40.474Z,35.90
2019-03-29T03:15:12.174Z,35.37
2019-03-29T03:17:43.172Z,34.40
2019-03-29T03:20:16.134Z,37.60
2019-03-29T03:22:47.132Z,37.10
2019-03-29T03:25:18.086Z,35.53
2019-03-29T03:27:50.109Z,35.40
2019-03-29T03:30:21.426Z,37.33
2019-03-29T03:32:52.332Z,35.20
2019-03-29T03:35:23.280Z,36.20
2019-03-29T03:37:54.198Z,36.00
2019-03-29T03:40:25.156Z,36.73
2019-03-29T03:42:56.079Z,36.83
2019-03-29T03:45:27.084Z,38.30
2019-03-29T03:47:58.006Z,36.50
2019-03-29T03:50:40.295Z,36.70
2019-03-29T03:53:11.486Z,36.50
2019-03-29T03:55:43.160Z,36.83
2019-03-29T03:58:14.081Z,38.23
2019-03-29T04:00:52.177Z,36.47
2019-03-29T04:03:23.711Z,39.63
2019-03-29T04:05:55.084Z,36.33
2019-03-29T04:08:26.358Z,39.03
2019-03-29T04:10:57.851Z,38.03
2019-03-29T04:13:28.777Z,37.00
2019-03-29T04:15:59.819Z,39.93
2019-03-29T04:18:30.732Z,38.70
2019-03-29T04:21:01.707Z,37.77
2019-03-29T04:23:32.685Z,38.30
2019-03-29T04:26:03.730Z,38.03
2019-03-29T04:28:34.735Z,37.87
2019-03-29T04:31:05.780Z,38.47
2019-03-29T04:33:36.724Z,37.90
2019-03-29T04:36:07.695Z,38.77
2019-03-29T04:38:38.618Z,37.37
2019-03-29T04:41:09.595Z,37.30
2019-03-29T04:43:40.487Z,38.73
2019-03-29T04:46:11.450Z,37.17
2019-03-29T04:48:42.354Z,36.90
2019-03-29T04:51:13.337Z,38.53
2019-03-29T04:53:44.277Z,38.40
2019-03-29T04:56:15.278Z,37.17
2019-03-29T04:58:46.280Z,37.50
2019-03-29T05:01:17.623Z,37.83
2019-03-29T05:03:48.522Z,36.80
2019-03-29T05:06:19.469Z,38.70
2019-03-29T05:08:50.384Z,37.73
2019-03-29T05:11:21.358Z,37.87
2019-03-29T05:13:52.277Z,36.40
2019-03-29T05:16:23.317Z,36.90
2019-03-29T05:18:54.233Z,38.90
2019-03-29T05:21:25.733Z,36.57
2019-03-29T05:23:56.825Z,35.57
2019-03-29T05:26:27.794Z,38.03
2019-03-29T05:28:58.718Z,39.10
2019-03-29T05:31:29.663Z,36.97
2019-03-29T05:34:00.602Z,36.60
2019-03-29T05:36:31.634Z,37.00
2019-03-29T05:39:02.578Z,38.67
2019-03-29T05:41:34.662Z,34.93
2019-03-29T05:44:05.570Z,36.37
2019-03-29T05:46:36.538Z,37.00
2019-03-29T05:49:07.482Z,37.57
2019-03-29T05:51:38.430Z,37.40
2019-03-29T05:54:09.346Z,37.17
2019-03-29T05:56:40.400Z,38.20
2019-03-29T05:59:11.309Z,36.47
2019-03-29T06:01:42.370Z,36.83
2019-03-29T06:04:13.285Z,38.27
2019-03-29T06:06:44.665Z,36.27
2019-03-29T06:09:15.543Z,37.83
2019-03-29T06:11:46.504Z,37.43
2019-03-29T06:14:17.426Z,35.57
2019-03-29T06:16:48.396Z,37.27
2019-03-29T06:19:19.506Z,35.47
2019-03-29T06:21:50.463Z,36.00
2019-03-29T06:24:21.427Z,36.03
2019-03-29T06:26:52.382Z,35.87
2019-03-29T06:29:23.342Z,35.33
2019-03-29T06:31:54.309Z,37.27
2019-03-29T06:34:25.362Z,35.23
2019-03-29T06:36:58.315Z,37.00
2019-03-29T06:39:29.557Z,35.97
2019-03-29T06:42:00.593Z,36.23
2019-03-29T06:44:31.522Z,35.73
2019-03-29T06:47:02.906Z,35.27
2019-03-29T06:49:33.814Z,35.80
2019-03-29T06:52:04.786Z,34.53
2019-03-29T06:54:35.691Z,36.10
2019-03-29T06:57:06.637Z,34.67
2019-03-29T06:59:37.545Z,35.53
2019-03-29T07:02:08.973Z,35.10
2019-03-29T07:04:39.898Z,35.20
2019-03-29T07:07:11.027Z,36.10
2019-03-29T07:09:42.017Z,35.33
2019-03-29T07:12:13.430Z,35.60
2019-03-29T07:14:44.340Z,34.63
2019-03-29T07:17:15.297Z,35.50
2019-03-29T07:19:46.222Z,35.43
2019-03-29T07:22:17.809Z,34.57
2019-03-29T07:24:48.763Z,37.17
2019-03-29T07:27:19.684Z,36.50
2019-03-29T07:29:50.582Z,34.23
2019-03-29T07:32:21.623Z,34.73
2019-03-29T07:34:52.537Z,34.70
2019-03-29T07:37:23.814Z,35.50
2019-03-29T07:39:54.717Z,35.03
2019-03-29T07:42:25.647Z,33.93
2019-03-29T07:44:56.829Z,31.03
2019-03-29T07:47:28.107Z,33.30
2019-03-29T07:49:59.012Z,34.17
2019-03-29T07:52:30.458Z,32.30
2019-03-29T07:55:01.786Z,33.97
2019-03-29T07:57:33.434Z,32.93
2019-03-29T08:00:04.904Z,33.43
2019-03-29T08:02:36.407Z,31.13
2019-03-29T08:05:08.101Z,32.53
2019-03-29T08:07:40.242Z,33.40
2019-03-29T08:10:24.188Z,31.80
2019-03-29T08:12:43.746Z,32.03
2019-03-29T08:15:14.656Z,30.67
2019-03-29T08:17:46.039Z,31.90
2019-03-29T08:20:38.050Z,31.30
2019-03-29T08:22:49.560Z,30.07
2019-03-29T08:25:20.927Z,29.47
2019-03-29T08:27:51.890Z,29.77
2019-03-29T08:30:22.794Z,28.60
2019-03-29T08:32:53.757Z,29.17
2019-03-29T08:35:25.001Z,28.40
2019-03-29T08:37:56.397Z,27.53
2019-03-29T08:40:27.314Z,28.37
2019-03-29T08:42:58.732Z,28.53
2019-03-29T08:45:29.654Z,27.70
2019-03-29T08:48:02.350Z,27.87
2019-03-29T08:50:33.442Z,28.77
2019-03-29T08:53:04.606Z,28.67
2019-03-29T08:55:45.753Z,26.23
2019-03-29T08:58:08.422Z,27.63
2019-03-29T09:00:39.319Z,27.70
2019-03-29T09:03:10.274Z,27.30
2019-03-29T09:05:41.903Z,26.23
2019-03-29T09:08:13.353Z,27.53
2019-03-29T09:10:44.352Z,26.80
2019-03-29T09:13:15.300Z,26.53
2019-03-29T09:15:46.206Z,26.80
2019-03-29T09:18:17.153Z,26.20
2019-03-29T09:20:48.059Z,26.40
2019-03-29T09:23:19.084Z,25.30
2019-03-29T09:25:50.137Z,24.93
2019-03-29T09:28:21.150Z,25.53
2019-03-29T09:30:52.598Z,24.50
2019-03-29T09:33:23.569Z,25.77
2019-03-29T09:35:54.484Z,25.20
2019-03-29T09:38:25.518Z,23.40
2019-03-29T09:40:59.048Z,23.83
2019-03-29T09:43:29.194Z,21.30
2019-03-29T09:46:03.110Z,22.27
2019-03-29T09:48:34.578Z,23.47
2019-03-29T09:51:05.446Z,23.07
2019-03-29T09:53:36.392Z,22.30
2019-03-29T09:56:07.729Z,19.40
2019-03-29T09:58:38.789Z,19.83
2019-03-29T10:01:10.310Z,20.33
2019-03-29T10:03:41.558Z,20.20
2019-03-29T10:06:15.110Z,17.93
2019-03-29T10:08:45.104Z,17.57
2019-03-29T10:11:16.012Z,16.47
2019-03-29T10:13:47.130Z,16.80
2019-03-29T10:16:18.082Z,14.90
2019-03-29T10:18:49.041Z,16.53
2019-03-29T10:21:19.970Z,14.53
2019-03-29T10:23:50.933Z,14.57
2019-03-29T10:26:21.905Z,15.50
2019-03-29T10:28:52.943Z,14.23
2019-03-29T10:31:32.143Z,13.13
2019-03-29T10:33:56.766Z,12.17
2019-03-29T10:36:27.657Z,10.43
2019-03-29T10:38:58.643Z,12.00
2019-03-29T10:41:29.537Z,12.10
2019-03-29T10:44:00.530Z,9.47
2019-03-29T10:46:31.427Z,9.07
2019-03-29T10:49:02.382Z,10.73
2019-03-29T10:51:33.292Z,9.57
2019-03-29T10:54:04.213Z,8.03
2019-03-29T10:56:35.154Z,5.47
2019-03-29T10:59:06.114Z,5.43
2019-03-29T11:01:37.250Z,5.03
2019-03-29T11:04:08.219Z,5.33
2019-03-29T11:06:39.162Z,5.17
2019-03-29T11:09:10.195Z,5.47
2019-03-29T11:11:41.105Z,4.97
2019-03-29T11:14:12.043Z,5.63
2019-03-29T11:16:42.948Z,6.33
2019-03-29T11:19:13.881Z,5.33
2019-03-29T11:21:44.878Z,5.60
2019-03-29T11:24:15.805Z,5.03
2019-03-29T11:26:46.762Z,4.63
2019-03-29T11:29:17.713Z,4.67
2019-03-29T11:31:48.612Z,4.40
2019-03-29T11:34:21.106Z,4.97
2019-03-29T11:36:52.721Z,4.10
2019-03-29T11:39:27.324Z,4.17
2019-03-29T11:41:56.644Z,4.50
2019-03-29T11:44:30.075Z,4.33
2019-03-29T11:47:00.091Z,3.87
2019-03-29T11:49:31.009Z,3.90
2019-03-29T11:52:01.940Z,3.40
2019-03-29T11:54:33.025Z,2.93
2019-03-29T11:57:03.878Z,3.37
2019-03-29T11:59:34.899Z,3.30
2019-03-29T12:02:05.810Z,3.03
2019-03-29T12:04:36.840Z,3.10
2019-03-29T12:07:07.726Z,3.50
2019-03-29T12:09:38.724Z,3.60
2019-03-29T12:12:09.927Z,3.93
2019-03-29T12:14:40.954Z,4.00
2019-03-29T12:17:11.841Z,4.30
2019-03-29T12:19:42.804Z,4.03
2019-03-29T12:22:13.847Z,3.77
2019-03-29T12:24:44.812Z,4.23
2019-03-29T12:27:15.716Z,4.07
2019-03-29T12:29:46.657Z,3.97
2019-03-29T12:32:17.594Z,3.90
2019-03-29T12:34:48.590Z,3.70
2019-03-29T12:37:19.442Z,3.90
2019-03-29T12:39:50.477Z,3.60
2019-03-29T12:42:21.390Z,3.90
2019-03-29T12:44:53.406Z,4.17
2019-03-29T12:47:24.310Z,4.20
2019-03-29T12:49:55.230Z,4.10
2019-03-29T12:52:26.118Z,4.43
2019-03-29T12:54:57.134Z,4.20
2019-03-29T12:57:28.429Z,4.20
2019-03-29T12:59:59.411Z,4.10
2019-03-29T13:02:30.312Z,3.93
2019-03-29T13:05:01.286Z,4.33
2019-03-29T13:07:32.234Z,4.00
2019-03-29T13:10:03.318Z,3.53
2019-03-29T13:12:34.297Z,3.77
2019-03-29T13:15:06.758Z,3.60
2019-03-29T13:17:37.734Z,4.63
2019-03-29T13:20:09.301Z,5.13
2019-03-29T13:22:40.488Z,5.37
2019-03-29T13:25:11.927Z,4.40
2019-03-29T13:27:43.289Z,4.93
2019-03-29T13:30:17.211Z,4.13
2019-03-29T13:32:47.933Z,3.90
2019-03-29T13:35:18.955Z,4.97
2019-03-29T13:37:49.883Z,4.77
2019-03-29T13:40:21.513Z,4.17
2019-03-29T13:42:52.538Z,4.90
2019-03-29T13:45:23.569Z,5.43
2019-03-29T13:47:55.540Z,5.03
2019-03-29T13:50:26.471Z,5.60
2019-03-29T13:52:57.370Z,5.23
2019-03-29T13:55:28.307Z,5.80
2019-03-29T13:57:59.191Z,5.50
2019-03-29T14:00:30.242Z,5.67
2019-03-29T14:03:01.184Z,6.10
2019-03-29T14:05:32.481Z,5.77
2019-03-29T14:08:03.429Z,6.00
2019-03-29T14:10:34.386Z,5.97
2019-03-29T14:13:05.318Z,5.40
2019-03-29T14:15:36.364Z,5.57
2019-03-29T14:18:07.249Z,5.60
2019-03-29T14:20:38.389Z,5.87
2019-03-29T14:23:09.350Z,6.57
2019-03-29T14:25:40.267Z,5.80
2019-03-29T14:28:11.301Z,6.67
2019-03-29T14:30:42.244Z,7.20
2019-03-29T14:33:13.141Z,6.60
2019-03-29T14:35:44.077Z,7.23
2019-03-29T14:38:14.961Z,6.17
2019-03-29T14:40:47.969Z,6.00
2019-03-29T14:43:18.859Z,6.70
2019-03-29T14:45:49.905Z,5.80
2019-03-29T14:48:20.802Z,6.60
2019-03-29T14:50:51.872Z,6.40
2019-03-29T14:53:23.822Z,6.10
2019-03-29T14:55:54.885Z,6.50
2019-03-29T14:58:25.798Z,6.20
2019-03-29T15:00:56.745Z,6.23
2019-03-29T15:03:27.722Z,6.67
2019-03-29T15:06:01.574Z,7.10
2019-03-29T15:08:31.613Z,6.50
2019-03-29T15:11:02.549Z,6.20
2019-03-29T15:13:33.441Z,6.30
2019-03-29T15:16:04.452Z,6.67
2019-03-29T15:18:36.524Z,6.27
2019-03-29T15:21:10.353Z,7.00
2019-03-29T15:23:40.100Z,7.30
2019-03-29T15:26:11.134Z,7.17
2019-03-29T15:28:42.098Z,7.00
2019-03-29T15:31:13.446Z,7.90
2019-03-29T15:33:44.365Z,7.23
2019-03-29T15:36:15.392Z,7.90
2019-03-29T15:38:46.342Z,7.90
2019-03-29T15:41:17.305Z,7.90
2019-03-29T15:43:48.224Z,8.47
2019-03-29T15:46:19.188Z,8.30
2019-03-29T15:48:50.283Z,7.43
2019-03-29T15:51:21.214Z,7.73
2019-03-29T15:53:52.116Z,7.43
2019-03-29T15:56:23.055Z,7.77
2019-03-29T15:58:54.025Z,7.80
2019-03-29T16:01:25.441Z,8.53
2019-03-29T16:03:56.426Z,8.10
2019-03-29T16:06:27.297Z,7.90
2019-03-29T16:08:58.221Z,7.80
2019-03-29T16:11:29.134Z,7.43
2019-03-29T16:14:00.123Z,7.57
2019-03-29T16:16:31.157Z,6.90
2019-03-29T16:19:02.194Z,7.30
2019-03-29T16:21:34.179Z,7.27
2019-03-29T16:24:06.784Z,7.00
2019-03-29T16:26:37.690Z,7.60
2019-03-29T16:29:08.658Z,7.23
2019-03-29T16:31:40.013Z,7.13
2019-03-29T16:34:10.902Z,7.40
2019-03-29T16:36:41.813Z,6.13
2019-03-29T16:39:12.708Z,6.67
2019-03-29T16:41:43.707Z,5.70
2019-03-29T16:44:14.681Z,6.47
2019-03-29T16:46:45.685Z,6.40
2019-03-29T16:49:16.581Z,6.00
2019-03-29T16:51:47.905Z,6.60
2019-03-29T16:54:19.935Z,6.57
2019-03-29T16:56:50.983Z,5.80
2019-03-29T16:59:21.953Z,6.10
2019-03-29T17:01:53.573Z,6.10
2019-03-29T17:04:24.680Z,5.73
2019-03-29T17:06:55.674Z,6.70
2019-03-29T17:09:26.593Z,5.70
2019-03-29T17:11:57.511Z,6.47
2019-03-29T17:14:28.409Z,6.13
2019-03-29T17:16:59.351Z,6.63
2019-03-29T17:19:30.242Z,6.03
2019-03-29T17:22:01.259Z,5.80
2019-03-29T17:24:32.215Z,5.73
2019-03-29T17:27:03.141Z,5.77
2019-03-29T17:29:34.179Z,5.63
2019-03-29T17:32:05.511Z,6.00
2019-03-29T17:34:36.409Z,6.60
2019-03-29T17:37:07.343Z,6.10
2019-03-29T17:39:38.235Z,6.13
2019-03-29T17:42:09.308Z,6.27
2019-03-29T17:44:40.191Z,6.27
2019-03-29T17:47:11.139Z,6.70
2019-03-29T17:49:42.105Z,6.83
2019-03-29T17:52:14.619Z,6.60
2019-03-29T17:54:45.526Z,7.73
2019-03-29T17:57:16.446Z,7.07
2019-03-29T17:59:47.352Z,6.77
2019-03-29T18:02:18.382Z,7.13
2019-03-29T18:04:49.309Z,7.40
2019-03-29T18:07:20.261Z,6.97
2019-03-29T18:09:51.165Z,7.17
2019-03-29T18:12:22.105Z,7.37
2019-03-29T18:14:53.013Z,7.10
2019-03-29T18:17:23.931Z,7.03
2019-03-29T18:19:56.625Z,8.30
2019-03-29T18:22:27.630Z,8.10
2019-03-29T18:24:58.830Z,7.50
2019-03-29T18:27:29.753Z,7.83
2019-03-29T18:30:00.693Z,7.27
2019-03-29T18:32:33.479Z,6.53
2019-03-29T18:35:04.646Z,7.30
2019-03-29T18:37:35.765Z,7.07
2019-03-29T18:40:07.183Z,7.13
2019-03-29T18:42:38.165Z,7.07
2019-03-29T18:45:09.653Z,9.07
2019-03-29T18:47:40.595Z,7.40
2019-03-29T18:50:11.498Z,7.70
2019-03-29T18:52:43.605Z,7.57
2019-03-29T18:55:14.611Z,7.17
2019-03-29T18:57:45.635Z,7.70
2019-03-29T19:00:19.538Z,7.53
2019-03-29T19:02:50.862Z,7.40
2019-03-29T19:05:28.046Z,7.43
2019-03-29T19:07:59.750Z,7.17
2019-03-29T19:10:30.652Z,7.47
2019-03-29T19:13:01.570Z,7.87
2019-03-29T19:15:32.462Z,8.60
2019-03-29T19:18:03.518Z,8.30
2019-03-29T19:20:34.482Z,7.90
2019-03-29T19:23:05.687Z,9.63
2019-03-29T19:25:36.590Z,8.50
2019-03-29T19:28:07.533Z,8.60
2019-03-29T19:30:38.573Z,9.00
2019-03-29T19:33:09.605Z,8.90
2019-03-29T19:35:40.497Z,9.33
2019-03-29T19:38:11.425Z,9.63
2019-03-29T19:40:42.339Z,9.83
2019-03-29T19:43:13.307Z,10.63
2019-03-29T19:45:44.581Z,8.97
2019-03-29T19:48:15.994Z,10.13
2019-03-29T19:50:47.255Z,10.00
2019-03-29T19:53:18.810Z,9.93
2019-03-29T19:55:49.674Z,9.50
2019-03-29T19:58:20.708Z,9.70
2019-03-29T20:00:51.627Z,10.13
2019-03-29T20:03:23.398Z,10.17
2019-03-29T20:05:54.341Z,10.40
2019-03-29T20:08:25.386Z,10.23
2019-03-29T20:10:56.284Z,11.60
2019-03-29T20:13:27.205Z,11.47
2019-03-29T20:15:58.120Z,11.70
2019-03-29T20:18:29.058Z,12.73
2019-03-29T20:20:59.949Z,13.37
2019-03-29T20:23:30.988Z,11.47
2019-03-29T20:26:01.876Z,15.53
2019-03-29T20:28:32.805Z,12.70
2019-03-29T20:31:03.770Z,13.17
2019-03-29T20:33:34.784Z,14.07
2019-03-29T20:36:05.678Z,14.17
2019-03-29T20:38:36.617Z,14.50
2019-03-29T20:41:07.513Z,13.17
2019-03-29T20:43:38.453Z,12.60
2019-03-29T20:46:09.357Z,12.10
2019-03-29T20:48:40.761Z,12.63
2019-03-29T20:51:11.661Z,12.33
2019-03-29T20:53:45.014Z,13.33
2019-03-29T20:56:16.042Z,12.83
2019-03-29T20:58:47.386Z,12.57
2019-03-29T21:01:18.471Z,13.50
2019-03-29T21:03:49.513Z,13.03
2019-03-29T21:06:20.450Z,14.27
2019-03-29T21:08:52.251Z,13.20
2019-03-29T21:11:23.147Z,12.03
2019-03-29T21:13:54.070Z,12.77
2019-03-29T21:16:24.977Z,11.70
2019-03-29T21:18:55.924Z,11.27
2019-03-29T21:21:26.841Z,11.83
2019-03-29T21:23:57.846Z,11.80
2019-03-29T21:26:28.751Z,12.73
2019-03-29T21:28:59.682Z,11.70
2019-03-29T21:31:30.675Z,12.20
2019-03-29T21:34:02.770Z,12.30
2019-03-29T21:36:33.673Z,12.13
2019-03-29T21:39:07.688Z,12.23
2019-03-29T21:41:38.645Z,11.80
2019-03-29T21:44:09.597Z,12.50
2019-03-29T21:46:40.490Z,11.70
2019-03-29T21:49:11.442Z,11.10
2019-03-29T21:51:42.732Z,12.17
2019-03-29T21:54:13.832Z,11.63
2019-03-29T21:56:44.793Z,12.20
2019-03-29T21:59:15.820Z,11.53
2019-03-29T22:01:46.726Z,13.33
2019-03-29T22:04:18.565Z,13.07
2019-03-29T22:06:49.525Z,13.17
2019-03-29T22:09:20.455Z,13.93
2019-03-29T22:11:51.363Z,13.43
2019-03-29T22:14:22.305Z,14.70
2019-03-29T22:16:53.203Z,13.83
2019-03-29T22:19:24.143Z,13.63
2019-03-29T22:21:55.135Z,14.47
2019-03-29T22:24:26.105Z,13.50
2019-03-29T22:26:56.994Z,13.93
2019-03-29T22:29:27.934Z,14.07
2019-03-29T22:31:58.967Z,13.67
2019-03-29T22:34:30.326Z,14.97
2019-03-29T22:37:01.221Z,15.23
2019-03-29T22:39:32.531Z,15.30
2019-03-29T22:42:05.335Z,14.30
2019-03-29T22:44:35.981Z,14.57
2019-03-29T22:47:06.865Z,15.50
2019-03-29T22:49:38.125Z,16.20
2019-03-29T22:52:09.030Z,14.30
2019-03-29T22:54:39.998Z,15.73
2019-03-29T22:57:10.901Z,16.70
2019-03-29T22:59:41.838Z,16.23
2019-03-29T23:02:12.743Z,15.57
2019-03-29T23:04:43.841Z,15.47
2019-03-29T23:07:14.768Z,16.40
2019-03-29T23:09:45.712Z,17.23
2019-03-29T23:12:16.597Z,16.97
2019-03-29T23:14:47.548Z,20.63
2019-03-29T23:17:18.450Z,22.17
2019-03-29T23:19:49.389Z,20.90
2019-03-29T23:22:20.306Z,20.73
2019-03-29T23:24:51.235Z,20.17
2019-03-29T23:27:22.210Z,18.27
2019-03-29T23:29:53.230Z,19.23
2019-03-29T23:32:24.354Z,17.93
2019-03-29T23:34:56.001Z,18.90
2019-03-29T23:37:26.946Z,18.93
2019-03-29T23:39:58.070Z,17.80
2019-03-29T23:42:28.986Z,18.77
2019-03-29T23:45:00.418Z,17.10
2019-03-29T23:47:31.396Z,18.77
2019-03-29T23:50:02.358Z,15.97
2019-03-29T23:52:33.325Z,17.80
2019-03-29T23:55:04.493Z,18.63
2019-03-29T23:57:35.381Z,18.73
